sensor_id;sensor_type;location;lat;lon;timestamp;pressure;altitude;pressure_sealevel;temperature;humidity
4590;BME280;2307;48.448;9.216;2023-04-26T00:00:08;95413.69;;;6.09;100.00
4590;BME280;2307;48.448;9.216;2023-04-26T00:02:35;95405.84;;;6.09;100.00
4590;BME280;2307;48.448;9.216;2023-04-26T00:05:02;95401.59;;;6.08;100.00
4590;BME280;2307;48.448;9.216;2023-04-26T00:07:29;95403.22;;;6.02;100.00
4590;BME280;2307;48.448;9.216;2023-04-26T00:09:56;95403.44;;;5.94;100.00
4590;BME280;2307;48.448;9.216;2023-04-26T00:12:24;95403.25;;;5.89;100.00
4590;BME280;2307;48.448;9.216;2023-04-26T00:14:50;95410.09;;;5.90;100.00
4590;BME280;2307;48.448;9.216;2023-04-26T00:17:16;95406.28;;;5.93;100.00
4590;BME280;2307;48.448;9.216;2023-04-26T00:19:43;95402.84;;;5.92;100.00
4590;BME280;2307;48.448;9.216;2023-04-26T00:22:10;95400.81;;;6.01;100.00
4590;BME280;2307;48.448;9.216;2023-04-26T00:24:37;95399.19;;;6.00;100.00
4590;BME280;2307;48.448;9.216;2023-04-26T00:27:03;95405.84;;;6.02;100.00
4590;BME280;2307;48.448;9.216;2023-04-26T00:29:34;95404.22;;;6.01;100.00
4590;BME280;2307;48.448;9.216;2023-04-26T00:32:01;95406.06;;;5.94;100.00
4590;BME280;2307;48.448;9.216;2023-04-26T00:34:30;95406.88;;;5.88;100.00
4590;BME280;2307;48.448;9.216;2023-04-26T00:36:57;95408.50;;;5.89;100.00
4590;BME280;2307;48.448;9.216;2023-04-26T00:39:23;95402.44;;;5.88;100.00
4590;BME280;2307;48.448;9.216;2023-04-26T00:41:49;95402.44;;;5.88;100.00
4590;BME280;2307;48.448;9.216;2023-04-26T00:44:16;95398.44;;;5.86;100.00
4590;BME280;2307;48.448;9.216;2023-04-26T00:46:44;95397.22;;;5.88;100.00
4590;BME280;2307;48.448;9.216;2023-04-26T00:49:10;95399.59;;;5.83;100.00
4590;BME280;2307;48.448;9.216;2023-04-26T00:51:39;95402.03;;;5.72;100.00
4590;BME280;2307;48.448;9.216;2023-04-26T00:54:05;95406.06;;;5.68;100.00
4590;BME280;2307;48.448;9.216;2023-04-26T00:56:32;95410.31;;;5.62;100.00
4590;BME280;2307;48.448;9.216;2023-04-26T00:59:00;95411.72;;;5.58;100.00
4590;BME280;2307;48.448;9.216;2023-04-26T01:01:27;95411.53;;;5.47;100.00
4590;BME280;2307;48.448;9.216;2023-04-26T01:03:55;95407.53;;;5.51;100.00
4590;BME280;2307;48.448;9.216;2023-04-26T01:06:22;95409.50;;;5.49;100.00
4590;BME280;2307;48.448;9.216;2023-04-26T01:08:48;95409.91;;;5.46;100.00
4590;BME280;2307;48.448;9.216;2023-04-26T01:11:16;95412.53;;;5.46;100.00
4590;BME280;2307;48.448;9.216;2023-04-26T01:13:42;95413.75;;;5.36;100.00
4590;BME280;2307;48.448;9.216;2023-04-26T01:16:09;95412.94;;;5.36;100.00
4590;BME280;2307;48.448;9.216;2023-04-26T01:18:35;95411.53;;;5.40;100.00
4590;BME280;2307;48.448;9.216;2023-04-26T01:21:03;95407.72;;;5.36;100.00
4590;BME280;2307;48.448;9.216;2023-04-26T01:23:31;95409.75;;;5.34;100.00
4590;BME280;2307;48.448;9.216;2023-04-26T01:25:58;95400.66;;;5.23;100.00
4590;BME280;2307;48.448;9.216;2023-04-26T01:28:24;95409.31;;;5.24;100.00
4590;BME280;2307;48.448;9.216;2023-04-26T01:30:50;95412.56;;;5.19;100.00
4590;BME280;2307;48.448;9.216;2023-04-26T01:33:17;95413.16;;;5.21;100.00
4590;BME280;2307;48.448;9.216;2023-04-26T01:35:43;95410.94;;;5.25;100.00
4590;BME280;2307;48.448;9.216;2023-04-26T01:38:09;95407.94;;;5.34;100.00
4590;BME280;2307;48.448;9.216;2023-04-26T01:40:39;95412.53;;;5.39;100.00
4590;BME280;2307;48.448;9.216;2023-04-26T01:43:10;95415.78;;;5.41;100.00
4590;BME280;2307;48.448;9.216;2023-04-26T01:45:36;95426.44;;;5.46;100.00
4590;BME280;2307;48.448;9.216;2023-04-26T01:48:03;95421.63;;;5.36;100.00
4590;BME280;2307;48.448;9.216;2023-04-26T01:50:29;95411.75;;;5.32;100.00
4590;BME280;2307;48.448;9.216;2023-04-26T01:52:56;95415.56;;;5.36;100.00
4590;BME280;2307;48.448;9.216;2023-04-26T01:55:22;95408.91;;;5.27;100.00
4590;BME280;2307;48.448;9.216;2023-04-26T01:57:50;95403.69;;;5.27;100.00
4590;BME280;2307;48.448;9.216;2023-04-26T02:00:16;95404.91;;;5.24;100.00
4590;BME280;2307;48.448;9.216;2023-04-26T02:02:43;95398.03;;;5.36;100.00
4590;BME280;2307;48.448;9.216;2023-04-26T02:05:09;95393.84;;;5.35;100.00
4590;BME280;2307;48.448;9.216;2023-04-26T02:07:36;95396.06;;;5.25;100.00
4590;BME280;2307;48.448;9.216;2023-04-26T02:10:02;95389.59;;;5.28;100.00
4590;BME280;2307;48.448;9.216;2023-04-26T02:12:29;95396.03;;;5.19;100.00
4590;BME280;2307;48.448;9.216;2023-04-26T02:14:57;95404.88;;;4.92;100.00
4590;BME280;2307;48.448;9.216;2023-04-26T02:17:24;95399.66;;;5.05;100.00
4590;BME280;2307;48.448;9.216;2023-04-26T02:19:50;95405.25;;;4.82;100.00
4590;BME280;2307;48.448;9.216;2023-04-26T02:22:17;95405.09;;;4.97;100.00
4590;BME280;2307;48.448;9.216;2023-04-26T02:24:43;95399.66;;;5.11;100.00
4590;BME280;2307;48.448;9.216;2023-04-26T02:27:09;95409.31;;;5.17;100.00
4590;BME280;2307;48.448;9.216;2023-04-26T02:29:36;95396.22;;;5.17;100.00
4590;BME280;2307;48.448;9.216;2023-04-26T02:32:04;95403.31;;;5.17;100.00
4590;BME280;2307;48.448;9.216;2023-04-26T02:34:31;95401.28;;;5.12;100.00
4590;BME280;2307;48.448;9.216;2023-04-26T02:36:58;95396.44;;;4.96;100.00
4590;BME280;2307;48.448;9.216;2023-04-26T02:39:24;95406.09;;;4.96;100.00
4590;BME280;2307;48.448;9.216;2023-04-26T02:41:51;95400.84;;;4.89;100.00
4590;BME280;2307;48.448;9.216;2023-04-26T02:44:17;95400.41;;;4.79;100.00
4590;BME280;2307;48.448;9.216;2023-04-26T02:46:43;95397.81;;;4.79;100.00
4590;BME280;2307;48.448;9.216;2023-04-26T02:49:11;95397.19;;;4.64;100.00
4590;BME280;2307;48.448;9.216;2023-04-26T02:51:38;95387.94;;;4.68;100.00
4590;BME280;2307;48.448;9.216;2023-04-26T02:54:04;95392.16;;;4.62;100.00
4590;BME280;2307;48.448;9.216;2023-04-26T02:56:31;95388.28;;;4.52;100.00
4590;BME280;2307;48.448;9.216;2023-04-26T02:58:57;95398.75;;;4.52;100.00
4590;BME280;2307;48.448;9.216;2023-04-26T03:01:24;95405.22;;;4.56;100.00
4590;BME280;2307;48.448;9.216;2023-04-26T03:03:50;95399.97;;;4.56;100.00
4590;BME280;2307;48.448;9.216;2023-04-26T03:06:18;95410.03;;;4.59;100.00
4590;BME280;2307;48.448;9.216;2023-04-26T03:08:44;95414.88;;;4.62;100.00
4590;BME280;2307;48.448;9.216;2023-04-26T03:11:11;95409.66;;;4.62;100.00
4590;BME280;2307;48.448;9.216;2023-04-26T03:13:37;95415.28;;;4.59;100.00
4590;BME280;2307;48.448;9.216;2023-04-26T03:16:04;95412.88;;;4.64;100.00
4590;BME280;2307;48.448;9.216;2023-04-26T03:18:31;95412.28;;;4.62;100.00
4590;BME280;2307;48.448;9.216;2023-04-26T03:20:57;95407.41;;;4.52;100.00
4590;BME280;2307;48.448;9.216;2023-04-26T03:23:25;95402.16;;;4.46;100.00
4590;BME280;2307;48.448;9.216;2023-04-26T03:25:52;95405.22;;;4.56;100.00
4590;BME280;2307;48.448;9.216;2023-04-26T03:28:19;95407.22;;;4.60;100.00
4590;BME280;2307;48.448;9.216;2023-04-26T03:30:45;95401.31;;;4.39;100.00
4590;BME280;2307;48.448;9.216;2023-04-26T03:33:14;95405.56;;;4.40;100.00
4590;BME280;2307;48.448;9.216;2023-04-26T03:35:40;95400.31;;;4.33;100.00
4590;BME280;2307;48.448;9.216;2023-04-26T03:38:07;95397.28;;;4.29;100.00
4590;BME280;2307;48.448;9.216;2023-04-26T03:40:34;95398.72;;;4.39;100.00
4590;BME280;2307;48.448;9.216;2023-04-26T03:43:01;95404.19;;;4.44;100.00
4590;BME280;2307;48.448;9.216;2023-04-26T03:45:27;95397.69;;;4.33;100.00
4590;BME280;2307;48.448;9.216;2023-04-26T03:47:54;95395.19;;;4.05;100.00
4590;BME280;2307;48.448;9.216;2023-04-26T03:50:20;95392.19;;;4.08;100.00
4590;BME280;2307;48.448;9.216;2023-04-26T03:52:47;95393.72;;;4.03;100.00
4590;BME280;2307;48.448;9.216;2023-04-26T03:55:13;95392.22;;;4.21;100.00
4590;BME280;2307;48.448;9.216;2023-04-26T03:57:41;95395.06;;;4.26;100.00
4590;BME280;2307;48.448;9.216;2023-04-26T04:00:08;95399.47;;;4.26;100.00
4590;BME280;2307;48.448;9.216;2023-04-26T04:02:38;95398.91;;;4.31;100.00
4590;BME280;2307;48.448;9.216;2023-04-26T04:05:04;95399.53;;;4.39;100.00
4590;BME280;2307;48.448;9.216;2023-04-26T04:07:32;95396.50;;;4.36;100.00
4590;BME280;2307;48.448;9.216;2023-04-26T04:09:58;95403.91;;;4.32;100.00
4590;BME280;2307;48.448;9.216;2023-04-26T04:12:25;95398.13;;;4.37;100.00
4590;BME280;2307;48.448;9.216;2023-04-26T04:14:52;95394.72;;;4.43;100.00
4590;BME280;2307;48.448;9.216;2023-04-26T04:17:19;95398.34;;;4.48;100.00
4590;BME280;2307;48.448;9.216;2023-04-26T04:19:45;95396.34;;;4.50;100.00
4590;BME280;2307;48.448;9.216;2023-04-26T04:22:12;95402.91;;;4.33;100.00
4590;BME280;2307;48.448;9.216;2023-04-26T04:24:38;95405.56;;;4.40;100.00
4590;BME280;2307;48.448;9.216;2023-04-26T04:27:06;95388.06;;;4.40;100.00
4590;BME280;2307;48.448;9.216;2023-04-26T04:29:32;95392.66;;;4.32;100.00
4590;BME280;2307;48.448;9.216;2023-04-26T04:32:00;95395.53;;;4.43;100.00
4590;BME280;2307;48.448;9.216;2023-04-26T04:34:27;95393.53;;;4.52;100.00
4590;BME280;2307;48.448;9.216;2023-04-26T04:36:53;95399.72;;;4.44;100.00
4590;BME280;2307;48.448;9.216;2023-04-26T04:39:19;95398.72;;;4.45;100.00
4590;BME280;2307;48.448;9.216;2023-04-26T04:41:46;95392.69;;;4.45;100.00
4590;BME280;2307;48.448;9.216;2023-04-26T04:44:13;95396.34;;;4.57;100.00
4590;BME280;2307;48.448;9.216;2023-04-26T04:46:40;95405.41;;;4.54;100.00
4590;BME280;2307;48.448;9.216;2023-04-26T04:49:09;95403.53;;;4.42;100.00
4590;BME280;2307;48.448;9.216;2023-04-26T04:51:36;95405.34;;;4.28;100.00
4590;BME280;2307;48.448;9.216;2023-04-26T04:54:08;95407.72;;;4.23;100.00
4590;BME280;2307;48.448;9.216;2023-04-26T04:56:34;95401.13;;;4.34;100.00
4590;BME280;2307;48.448;9.216;2023-04-26T04:59:01;95408.34;;;4.38;100.00
4590;BME280;2307;48.448;9.216;2023-04-26T05:01:28;95414.41;;;4.39;100.00
4590;BME280;2307;48.448;9.216;2023-04-26T05:03:54;95420.03;;;4.36;100.00
4590;BME280;2307;48.448;9.216;2023-04-26T05:06:22;95424.06;;;4.45;100.00
4590;BME280;2307;48.448;9.216;2023-04-26T05:08:49;95417.66;;;4.54;100.00
4590;BME280;2307;48.448;9.216;2023-04-26T05:11:16;95424.75;;;4.66;100.00
4590;BME280;2307;48.448;9.216;2023-04-26T05:13:42;95429.41;;;4.77;100.00
4590;BME280;2307;48.448;9.216;2023-04-26T05:16:09;95434.66;;;4.84;100.00
4590;BME280;2307;48.448;9.216;2023-04-26T05:18:35;95435.91;;;4.95;100.00
4590;BME280;2307;48.448;9.216;2023-04-26T05:21:02;95435.47;;;5.04;100.00
4590;BME280;2307;48.448;9.216;2023-04-26T05:23:30;95434.69;;;5.04;100.00
4590;BME280;2307;48.448;9.216;2023-04-26T05:25:56;95438.31;;;5.09;100.00
4590;BME280;2307;48.448;9.216;2023-04-26T05:28:26;95438.50;;;5.08;100.00
4590;BME280;2307;48.448;9.216;2023-04-26T05:30:52;95439.31;;;5.08;100.00
4590;BME280;2307;48.448;9.216;2023-04-26T05:33:19;95436.53;;;5.16;100.00
4590;BME280;2307;48.448;9.216;2023-04-26T05:35:45;95441.16;;;5.27;100.00
4590;BME280;2307;48.448;9.216;2023-04-26T05:38:12;95443.78;;;5.41;100.00
4590;BME280;2307;48.448;9.216;2023-04-26T05:40:40;95442.38;;;5.38;100.00
4590;BME280;2307;48.448;9.216;2023-04-26T05:43:07;95452.03;;;5.44;100.00
4590;BME280;2307;48.448;9.216;2023-04-26T05:45:33;95459.31;;;5.42;100.00
4590;BME280;2307;48.448;9.216;2023-04-26T05:48:00;95461.13;;;5.42;100.00
4590;BME280;2307;48.448;9.216;2023-04-26T05:50:27;95462.53;;;5.38;100.00
4590;BME280;2307;48.448;9.216;2023-04-26T05:52:53;95463.72;;;5.35;100.00
4590;BME280;2307;48.448;9.216;2023-04-26T05:55:19;95477.41;;;5.37;100.00
4590;BME280;2307;48.448;9.216;2023-04-26T05:57:47;95473.97;;;5.30;100.00
4590;BME280;2307;48.448;9.216;2023-04-26T06:00:15;95470.38;;;5.38;100.00
4590;BME280;2307;48.448;9.216;2023-04-26T06:02:43;95471.38;;;5.30;100.00
4590;BME280;2307;48.448;9.216;2023-04-26T06:05:10;95465.97;;;5.51;100.00
4590;BME280;2307;48.448;9.216;2023-04-26T06:07:36;95465.34;;;5.62;100.00
4590;BME280;2307;48.448;9.216;2023-04-26T06:10:03;95469.97;;;5.80;100.00
4590;BME280;2307;48.448;9.216;2023-04-26T06:12:30;95470.00;;;5.86;100.00
4590;BME280;2307;48.448;9.216;2023-04-26T06:14:58;95476.25;;;5.92;100.00
4590;BME280;2307;48.448;9.216;2023-04-26T06:17:24;95474.22;;;5.94;100.00
4590;BME280;2307;48.448;9.216;2023-04-26T06:19:51;95477.22;;;6.04;100.00
4590;BME280;2307;48.448;9.216;2023-04-26T06:22:17;95480.25;;;6.08;100.00
4590;BME280;2307;48.448;9.216;2023-04-26T06:24:44;95476.22;;;6.05;100.00
4590;BME280;2307;48.448;9.216;2023-04-26T06:27:10;95476.00;;;6.00;100.00
4590;BME280;2307;48.448;9.216;2023-04-26T06:29:36;95476.00;;;6.07;100.00
4590;BME280;2307;48.448;9.216;2023-04-26T06:32:04;95481.25;;;6.07;100.00
4590;BME280;2307;48.448;9.216;2023-04-26T06:34:31;95484.28;;;5.97;100.00
4590;BME280;2307;48.448;9.216;2023-04-26T06:36:57;95494.34;;;6.07;100.00
4590;BME280;2307;48.448;9.216;2023-04-26T06:39:24;95483.88;;;6.07;100.00
4590;BME280;2307;48.448;9.216;2023-04-26T06:41:50;95486.50;;;6.07;100.00
4590;BME280;2307;48.448;9.216;2023-04-26T06:44:16;95489.13;;;6.00;100.00
4590;BME280;2307;48.448;9.216;2023-04-26T06:46:43;95490.16;;;5.99;100.00
4590;BME280;2307;48.448;9.216;2023-04-26T06:49:11;95496.41;;;5.98;100.00
4590;BME280;2307;48.448;9.216;2023-04-26T06:51:37;95484.50;;;5.89;100.00
4590;BME280;2307;48.448;9.216;2023-04-26T06:54:03;95493.16;;;5.83;100.00
4590;BME280;2307;48.448;9.216;2023-04-26T06:56:30;95488.72;;;5.90;100.00
4590;BME280;2307;48.448;9.216;2023-04-26T06:58:57;95492.78;;;5.99;100.00
4590;BME280;2307;48.448;9.216;2023-04-26T07:01:23;95490.13;;;6.06;100.00
4590;BME280;2307;48.448;9.216;2023-04-26T07:03:50;95488.91;;;6.15;100.00
4590;BME280;2307;48.448;9.216;2023-04-26T07:06:18;95481.81;;;6.22;100.00
4590;BME280;2307;48.448;9.216;2023-04-26T07:08:44;95472.34;;;6.27;100.00
4590;BME280;2307;48.448;9.216;2023-04-26T07:11:11;95470.28;;;6.43;100.00
4590;BME280;2307;48.448;9.216;2023-04-26T07:13:38;95471.66;;;6.45;100.00
4590;BME280;2307;48.448;9.216;2023-04-26T07:16:04;95474.03;;;6.60;100.00
4590;BME280;2307;48.448;9.216;2023-04-26T07:18:30;95472.38;;;6.72;100.00
4590;BME280;2307;48.448;9.216;2023-04-26T07:20:57;95477.38;;;6.80;100.00
4590;BME280;2307;48.448;9.216;2023-04-26T07:23:25;95481.00;;;6.79;100.00
4590;BME280;2307;48.448;9.216;2023-04-26T07:25:51;95474.34;;;6.83;100.00
4590;BME280;2307;48.448;9.216;2023-04-26T07:28:18;95469.31;;;6.81;100.00
4590;BME280;2307;48.448;9.216;2023-04-26T07:30:44;95463.06;;;6.76;100.00
4590;BME280;2307;48.448;9.216;2023-04-26T07:33:11;95464.44;;;6.85;100.00
4590;BME280;2307;48.448;9.216;2023-04-26T07:35:37;95464.81;;;6.88;100.00
4590;BME280;2307;48.448;9.216;2023-04-26T07:38:04;95464.28;;;6.73;100.00
4590;BME280;2307;48.448;9.216;2023-04-26T07:40:32;95456.56;;;6.85;100.00
4590;BME280;2307;48.448;9.216;2023-04-26T07:42:59;95460.25;;;6.77;100.00
4590;BME280;2307;48.448;9.216;2023-04-26T07:45:25;95464.31;;;6.67;100.00
4590;BME280;2307;48.448;9.216;2023-04-26T07:47:52;95454.84;;;6.66;100.00
4590;BME280;2307;48.448;9.216;2023-04-26T07:50:18;95451.31;;;6.85;100.00
4590;BME280;2307;48.448;9.216;2023-04-26T07:52:45;95446.25;;;6.90;100.00
4590;BME280;2307;48.448;9.216;2023-04-26T07:55:11;95448.88;;;6.90;100.00
4590;BME280;2307;48.448;9.216;2023-04-26T07:57:39;95461.06;;;6.78;100.00
4590;BME280;2307;48.448;9.216;2023-04-26T08:00:06;95451.31;;;6.85;100.00
4590;BME280;2307;48.448;9.216;2023-04-26T08:02:34;95456.97;;;6.82;100.00
4590;BME280;2307;48.448;9.216;2023-04-26T08:05:01;95457.81;;;6.76;100.00
4590;BME280;2307;48.448;9.216;2023-04-26T08:07:27;95451.38;;;6.78;100.00
4590;BME280;2307;48.448;9.216;2023-04-26T08:09:54;95454.97;;;6.84;100.00
4590;BME280;2307;48.448;9.216;2023-04-26T08:12:20;95453.84;;;6.98;100.00
4590;BME280;2307;48.448;9.216;2023-04-26T08:14:48;95453.25;;;7.03;100.00
4590;BME280;2307;48.448;9.216;2023-04-26T08:17:14;95458.84;;;7.13;100.00
4590;BME280;2307;48.448;9.216;2023-04-26T08:19:41;95455.91;;;7.27;100.00
4590;BME280;2307;48.448;9.216;2023-04-26T08:22:07;95452.19;;;7.41;100.00
4590;BME280;2307;48.448;9.216;2023-04-26T08:24:33;95451.47;;;7.53;100.00
4590;BME280;2307;48.448;9.216;2023-04-26T08:27:00;95452.13;;;7.73;100.00
4590;BME280;2307;48.448;9.216;2023-04-26T08:29:27;95451.59;;;7.89;100.00
4590;BME280;2307;48.448;9.216;2023-04-26T08:31:54;95457.03;;;7.87;100.00
4590;BME280;2307;48.448;9.216;2023-04-26T08:34:21;95454.28;;;8.00;100.00
4590;BME280;2307;48.448;9.216;2023-04-26T08:36:47;95452.94;;;8.16;100.00
4590;BME280;2307;48.448;9.216;2023-04-26T08:39:14;95456.22;;;8.12;100.00
4590;BME280;2307;48.448;9.216;2023-04-26T08:41:42;95457.75;;;8.19;100.00
4590;BME280;2307;48.448;9.216;2023-04-26T08:44:09;95461.56;;;8.23;100.00
4590;BME280;2307;48.448;9.216;2023-04-26T08:46:39;95466.56;;;8.07;100.00
4590;BME280;2307;48.448;9.216;2023-04-26T08:49:12;95464.03;;;8.18;100.00
4590;BME280;2307;48.448;9.216;2023-04-26T08:51:40;95455.28;;;8.24;100.00
4590;BME280;2307;48.448;9.216;2023-04-26T08:54:06;95463.94;;;8.31;100.00
4590;BME280;2307;48.448;9.216;2023-04-26T08:56:32;95467.25;;;8.20;100.00
4590;BME280;2307;48.448;9.216;2023-04-26T08:59:00;95467.97;;;8.09;100.00
4590;BME280;2307;48.448;9.216;2023-04-26T09:01:27;95466.19;;;8.03;100.00
4590;BME280;2307;48.448;9.216;2023-04-26T09:03:54;95471.72;;;8.20;100.00
4590;BME280;2307;48.448;9.216;2023-04-26T09:06:22;95475.28;;;8.25;100.00
4590;BME280;2307;48.448;9.216;2023-04-26T09:08:49;95475.75;;;8.40;100.00
4590;BME280;2307;48.448;9.216;2023-04-26T09:11:16;95465.25;;;8.59;100.00
4590;BME280;2307;48.448;9.216;2023-04-26T09:13:43;95476.66;;;8.71;100.00
4590;BME280;2307;48.448;9.216;2023-04-26T09:16:11;95467.50;;;8.73;100.00
4590;BME280;2307;48.448;9.216;2023-04-26T09:18:46;95471.53;;;8.76;100.00
4590;BME280;2307;48.448;9.216;2023-04-26T09:21:12;95473.25;;;9.00;100.00
4590;BME280;2307;48.448;9.216;2023-04-26T09:23:56;95475.19;;;9.23;100.00
4590;BME280;2307;48.448;9.216;2023-04-26T09:26:23;95475.22;;;9.46;100.00
4590;BME280;2307;48.448;9.216;2023-04-26T09:28:50;95464.22;;;9.37;100.00
4590;BME280;2307;48.448;9.216;2023-04-26T09:31:36;95470.56;;;9.48;100.00
4590;BME280;2307;48.448;9.216;2023-04-26T09:34:03;95461.50;;;9.55;100.00
4590;BME280;2307;48.448;9.216;2023-04-26T09:36:29;95466.91;;;9.60;100.00
4590;BME280;2307;48.448;9.216;2023-04-26T09:38:57;95459.00;;;9.60;100.00
4590;BME280;2307;48.448;9.216;2023-04-26T09:41:27;95463.22;;;9.50;100.00
4590;BME280;2307;48.448;9.216;2023-04-26T09:44:18;95459.47;;;9.57;100.00
4590;BME280;2307;48.448;9.216;2023-04-26T09:46:56;95454.19;;;9.57;100.00
4590;BME280;2307;48.448;9.216;2023-04-26T09:49:22;95455.13;;;9.75;100.00
4590;BME280;2307;48.448;9.216;2023-04-26T09:51:58;95452.72;;;9.85;100.00
4590;BME280;2307;48.448;9.216;2023-04-26T09:54:37;95450.56;;;10.05;100.00
4590;BME280;2307;48.448;9.216;2023-04-26T09:57:04;95442.41;;;10.41;100.00
4590;BME280;2307;48.448;9.216;2023-04-26T09:59:37;95449.63;;;10.34;88.36
4590;BME280;2307;48.448;9.216;2023-04-26T10:02:05;95451.09;;;10.53;92.74
4590;BME280;2307;48.448;9.216;2023-04-26T10:04:34;95460.84;;;10.64;91.57
4590;BME280;2307;48.448;9.216;2023-04-26T10:07:01;95455.56;;;10.53;95.91
4590;BME280;2307;48.448;9.216;2023-04-26T10:09:29;95450.38;;;10.70;94.30
4590;BME280;2307;48.448;9.216;2023-04-26T10:11:57;95443.19;;;10.42;77.62
4590;BME280;2307;48.448;9.216;2023-04-26T10:14:24;95446.41;;;10.55;82.58
4590;BME280;2307;48.448;9.216;2023-04-26T10:16:50;95445.59;;;10.43;76.33
4590;BME280;2307;48.448;9.216;2023-04-26T10:19:18;95450.91;;;10.32;74.58
4590;BME280;2307;48.448;9.216;2023-04-26T10:21:46;95444.16;;;10.24;76.82
4590;BME280;2307;48.448;9.216;2023-04-26T10:24:13;95442.88;;;10.15;79.76
4590;BME280;2307;48.448;9.216;2023-04-26T10:26:52;95440.13;;;10.33;81.84
4590;BME280;2307;48.448;9.216;2023-04-26T10:29:22;95444.41;;;10.62;82.68
4590;BME280;2307;48.448;9.216;2023-04-26T10:32:08;95434.44;;;10.53;75.00
4590;BME280;2307;48.448;9.216;2023-04-26T10:34:45;95438.13;;;10.40;77.57
4590;BME280;2307;48.448;9.216;2023-04-26T10:37:32;95437.06;;;10.64;96.01
4590;BME280;2307;48.448;9.216;2023-04-26T10:42:40;95429.91;;;11.05;75.37
4590;BME280;2307;48.448;9.216;2023-04-26T10:45:23;95435.44;;;11.32;74.66
4590;BME280;2307;48.448;9.216;2023-04-26T10:47:50;95434.34;;;11.44;72.43
4590;BME280;2307;48.448;9.216;2023-04-26T10:50:44;95433.13;;;11.52;76.93
4590;BME280;2307;48.448;9.216;2023-04-26T10:53:56;95432.38;;;11.40;69.47
4590;BME280;2307;48.448;9.216;2023-04-26T10:59:06;95433.03;;;11.47;66.20
4590;BME280;2307;48.448;9.216;2023-04-26T11:01:33;95421.25;;;11.38;67.89
4590;BME280;2307;48.448;9.216;2023-04-26T11:04:05;95423.75;;;11.44;65.87
4590;BME280;2307;48.448;9.216;2023-04-26T11:06:46;95432.06;;;11.36;69.60
4590;BME280;2307;48.448;9.216;2023-04-26T11:11:56;95418.28;;;11.67;64.49
4590;BME280;2307;48.448;9.216;2023-04-26T11:14:23;95413.34;;;12.04;62.46
4590;BME280;2307;48.448;9.216;2023-04-26T11:16:50;95414.38;;;12.20;64.05
4590;BME280;2307;48.448;9.216;2023-04-26T11:19:16;95414.56;;;12.35;59.31
4590;BME280;2307;48.448;9.216;2023-04-26T11:21:43;95408.72;;;12.33;56.96
4590;BME280;2307;48.448;9.216;2023-04-26T11:24:09;95416.09;;;12.53;54.67
4590;BME280;2307;48.448;9.216;2023-04-26T11:26:35;95405.94;;;12.45;54.72
4590;BME280;2307;48.448;9.216;2023-04-26T11:29:03;95404.59;;;12.42;52.06
4590;BME280;2307;48.448;9.216;2023-04-26T11:31:32;95410.44;;;12.44;52.32
4590;BME280;2307;48.448;9.216;2023-04-26T11:34:02;95413.16;;;12.49;51.78
4590;BME280;2307;48.448;9.216;2023-04-26T11:36:29;95414.22;;;12.48;52.17
4590;BME280;2307;48.448;9.216;2023-04-26T11:38:56;95405.41;;;12.64;55.18
4590;BME280;2307;48.448;9.216;2023-04-26T11:41:22;95409.72;;;12.70;57.33
4590;BME280;2307;48.448;9.216;2023-04-26T11:43:49;95395.34;;;12.23;54.57
4590;BME280;2307;48.448;9.216;2023-04-26T11:49:12;95380.91;;;12.79;53.51
4590;BME280;2307;48.448;9.216;2023-04-26T11:51:39;95376.94;;;12.55;56.49
4590;BME280;2307;48.448;9.216;2023-04-26T11:54:06;95376.47;;;12.85;56.49
4590;BME280;2307;48.448;9.216;2023-04-26T11:56:32;95371.44;;;13.10;57.62
4590;BME280;2307;48.448;9.216;2023-04-26T11:58:59;95370.69;;;13.41;55.89
4590;BME280;2307;48.448;9.216;2023-04-26T12:01:26;95368.34;;;13.81;52.17
4590;BME280;2307;48.448;9.216;2023-04-26T12:03:53;95365.97;;;13.85;51.88
4590;BME280;2307;48.448;9.216;2023-04-26T12:06:24;95369.81;;;13.30;50.08
4590;BME280;2307;48.448;9.216;2023-04-26T12:08:51;95363.94;;;14.02;53.14
4590;BME280;2307;48.448;9.216;2023-04-26T12:11:17;95370.16;;;14.18;51.77
4590;BME280;2307;48.448;9.216;2023-04-26T12:13:44;95369.69;;;14.31;48.46
4590;BME280;2307;48.448;9.216;2023-04-26T12:16:11;95366.72;;;14.17;44.96
4590;BME280;2307;48.448;9.216;2023-04-26T12:18:39;95356.94;;;14.28;51.51
4590;BME280;2307;48.448;9.216;2023-04-26T12:21:06;95358.25;;;14.25;45.75
4590;BME280;2307;48.448;9.216;2023-04-26T12:23:38;95369.47;;;13.91;45.21
4590;BME280;2307;48.448;9.216;2023-04-26T12:26:05;95357.44;;;13.78;43.80
4590;BME280;2307;48.448;9.216;2023-04-26T12:28:34;95363.91;;;13.55;44.61
4590;BME280;2307;48.448;9.216;2023-04-26T12:31:01;95361.50;;;13.22;45.41
4590;BME280;2307;48.448;9.216;2023-04-26T12:33:28;95360.09;;;13.41;45.06
4590;BME280;2307;48.448;9.216;2023-04-26T12:35:56;95371.22;;;13.43;47.18
4590;BME280;2307;48.448;9.216;2023-04-26T12:38:24;95366.88;;;13.05;45.82
4590;BME280;2307;48.448;9.216;2023-04-26T12:40:52;95374.38;;;12.87;47.65
4590;BME280;2307;48.448;9.216;2023-04-26T12:43:18;95358.59;;;12.75;47.46
4590;BME280;2307;48.448;9.216;2023-04-26T12:45:48;95354.19;;;12.81;46.74
4590;BME280;2307;48.448;9.216;2023-04-26T12:48:32;95350.47;;;12.82;47.16
4590;BME280;2307;48.448;9.216;2023-04-26T12:50:59;95348.47;;;12.94;47.07
4590;BME280;2307;48.448;9.216;2023-04-26T12:53:25;95353.47;;;12.90;49.58
4590;BME280;2307;48.448;9.216;2023-04-26T12:55:53;95345.38;;;13.02;46.44
4590;BME280;2307;48.448;9.216;2023-04-26T12:58:19;95342.84;;;13.12;46.37
4590;BME280;2307;48.448;9.216;2023-04-26T13:00:46;95345.41;;;13.65;44.63
4590;BME280;2307;48.448;9.216;2023-04-26T13:03:21;95333.28;;;14.26;44.44
4590;BME280;2307;48.448;9.216;2023-04-26T13:05:47;95326.25;;;14.57;44.72
4590;BME280;2307;48.448;9.216;2023-04-26T13:08:14;95333.19;;;14.58;47.07
4590;BME280;2307;48.448;9.216;2023-04-26T13:10:49;95322.28;;;14.60;48.60
4590;BME280;2307;48.448;9.216;2023-04-26T13:13:17;95327.06;;;14.63;48.43
4590;BME280;2307;48.448;9.216;2023-04-26T13:15:44;95333.91;;;14.39;48.03
4590;BME280;2307;48.448;9.216;2023-04-26T13:18:10;95331.63;;;14.67;45.82
4590;BME280;2307;48.448;9.216;2023-04-26T13:20:39;95332.47;;;14.98;42.37
4590;BME280;2307;48.448;9.216;2023-04-26T13:23:11;95335.22;;;15.54;45.23
4590;BME280;2307;48.448;9.216;2023-04-26T13:25:37;95333.06;;;15.46;44.90
4590;BME280;2307;48.448;9.216;2023-04-26T13:28:04;95339.19;;;15.76;42.46
4590;BME280;2307;48.448;9.216;2023-04-26T13:30:32;95329.06;;;15.83;44.30
4590;BME280;2307;48.448;9.216;2023-04-26T13:32:59;95325.63;;;15.68;42.81
4590;BME280;2307;48.448;9.216;2023-04-26T13:35:25;95327.47;;;15.82;45.21